Terminal Aerodrome Forecast
Issued by NWS

Home | Current Version | Previous Version | Text Only | Print | Product List | Glossary On
Versions: 1 2 3 4 5 6 7 8 9 10 11 12 13 14
733
FTUS41 KPHI 232320
TAFPNE
TAF
KPNE 232320Z 2400/2424 25010KT P6SM SCT100
     FM240500 VRB02KT P6SM SKC
     FM241600 30007KT P6SM SCT250=

USA.gov is the U.S. government's official web portal to all federal, state and local government web resources and services.